createdAt,value
2019-05-13T00:00:37.198Z,99.70
2019-05-13T00:03:19.109Z,99.90
2019-05-13T00:06:01.232Z,99.90
2019-05-13T00:08:44.035Z,99.90
2019-05-13T00:11:26.275Z,99.90
2019-05-13T00:14:08.254Z,99.90
2019-05-13T00:16:50.322Z,99.90
2019-05-13T00:19:33.927Z,99.90
2019-05-13T00:22:16.561Z,99.90
2019-05-13T00:24:58.688Z,99.90
2019-05-13T00:27:44.374Z,99.90
2019-05-13T00:30:25.976Z,99.90
2019-05-13T00:33:07.831Z,99.90
2019-05-13T00:35:49.830Z,99.90
2019-05-13T00:38:33.584Z,99.90
2019-05-13T00:41:14.315Z,99.90
2019-05-13T00:44:04.017Z,99.90
2019-05-13T00:56:36.301Z,99.90
2019-05-13T00:59:27.587Z,99.90
2019-05-13T01:02:17.247Z,99.90
2019-05-13T01:05:26.264Z,99.90
2019-05-13T01:11:49.768Z,99.90
2019-05-13T01:21:23.872Z,99.90
2019-05-13T01:24:25.035Z,99.90
2019-05-13T01:27:07.210Z,99.90
2019-05-13T01:29:49.309Z,99.90
2019-05-13T01:32:34.198Z,99.90
2019-05-13T01:35:15.716Z,99.90
2019-05-13T01:37:57.472Z,99.90
2019-05-13T01:40:39.224Z,99.90
2019-05-13T01:43:21.382Z,99.90
2019-05-13T01:46:04.525Z,99.90
2019-05-13T01:48:46.374Z,99.90
2019-05-13T01:51:28.476Z,99.90
2019-05-13T01:54:10.568Z,99.90
2019-05-13T01:56:53.477Z,99.90
2019-05-13T01:59:35.945Z,99.90
2019-05-13T02:02:18.431Z,99.90
2019-05-13T02:05:00.467Z,99.90
2019-05-13T02:07:54.523Z,99.90
2019-05-13T02:10:45.923Z,99.90
2019-05-13T02:13:28.211Z,99.90
2019-05-13T02:16:10.760Z,99.90
2019-05-13T02:18:53.708Z,99.90
2019-05-13T02:21:36.128Z,99.90
2019-05-13T02:24:18.046Z,99.90
2019-05-13T02:27:00.692Z,99.90
2019-05-13T02:29:43.624Z,99.90
2019-05-13T02:32:26.086Z,99.90
2019-05-13T02:35:08.392Z,99.90
2019-05-13T02:37:52.578Z,99.90
2019-05-13T02:40:33.837Z,99.90
2019-05-13T02:43:16.011Z,99.90
2019-05-13T02:45:58.186Z,99.90
2019-05-13T02:48:42.250Z,99.90
2019-05-13T02:51:24.149Z,99.90
2019-05-13T02:54:06.073Z,99.90
2019-05-13T02:56:48.179Z,99.90
2019-05-13T02:59:33.437Z,99.90
2019-05-13T03:02:14.769Z,99.90
2019-05-13T03:04:57.047Z,99.70
2019-05-13T03:07:42.219Z,99.70
2019-05-13T03:10:22.415Z,99.60
2019-05-13T03:16:45.957Z,99.40
2019-05-13T03:19:35.672Z,99.20
2019-05-13T03:22:44.716Z,99.00
2019-05-13T03:29:08.080Z,98.80
2019-05-13T03:35:46.634Z,98.80
2019-05-13T03:42:04.560Z,98.40
2019-05-13T03:44:46.508Z,98.50
2019-05-13T03:47:28.939Z,98.50
2019-05-13T03:50:13.021Z,98.40
2019-05-13T03:52:54.486Z,98.30
2019-05-13T03:55:36.864Z,98.30
2019-05-13T03:58:18.903Z,98.10
2019-05-13T04:01:02.891Z,98.40
2019-05-13T04:03:44.518Z,98.10
2019-05-13T04:06:27.049Z,98.00
2019-05-13T04:09:24.092Z,98.30
2019-05-13T04:11:52.790Z,98.20
2019-05-13T04:14:34.651Z,98.30
2019-05-13T04:17:17.135Z,98.50
2019-05-13T04:20:02.838Z,98.30
2019-05-13T04:22:43.153Z,98.40
2019-05-13T04:25:25.673Z,98.60
2019-05-13T04:28:07.851Z,98.60
2019-05-13T04:30:52.558Z,98.50
2019-05-13T04:33:33.938Z,98.50
2019-05-13T04:36:15.964Z,98.50
2019-05-13T04:38:57.753Z,98.20
2019-05-13T04:52:42.135Z,98.20
2019-05-13T04:55:52.444Z,98.10
2019-05-13T05:02:39.845Z,98.40
2019-05-13T05:06:03.536Z,98.40
2019-05-13T05:09:12.517Z,98.70
2019-05-13T05:12:42.549Z,98.70
2019-05-13T05:15:44.751Z,98.90
2019-05-13T05:18:26.941Z,99.10
2019-05-13T05:21:11.786Z,99.00
2019-05-13T05:23:52.493Z,98.70
2019-05-13T05:26:34.724Z,98.60
2019-05-13T05:29:17.447Z,98.30
2019-05-13T05:32:01.329Z,98.20
2019-05-13T05:34:43.444Z,97.90
2019-05-13T05:37:26.285Z,97.80
2019-05-13T05:40:08.046Z,97.90
2019-05-13T05:42:51.797Z,97.50
2019-05-13T05:45:34.371Z,97.90
2019-05-13T05:48:16.652Z,97.80
2019-05-13T05:51:02.002Z,97.60
2019-05-13T05:53:43.363Z,98.10
2019-05-13T05:56:25.449Z,97.70
2019-05-13T05:59:07.245Z,98.70
2019-05-13T06:01:52.337Z,97.30
2019-05-13T06:04:33.203Z,98.30
2019-05-13T06:07:15.721Z,97.30
2019-05-13T06:09:58.154Z,97.70
2019-05-13T06:12:42.314Z,97.90
2019-05-13T06:15:25.361Z,97.40
2019-05-13T06:18:07.720Z,96.90
2019-05-13T06:20:51.186Z,96.20
2019-05-13T06:23:33.000Z,96.10
2019-05-13T06:26:14.836Z,96.70
2019-05-13T06:28:56.775Z,96.70
2019-05-13T06:31:38.565Z,96.20
2019-05-13T06:34:21.530Z,97.80
2019-05-13T06:37:04.010Z,97.10
2019-05-13T06:39:45.857Z,97.00
2019-05-13T06:42:27.614Z,98.10
2019-05-13T06:45:12.199Z,96.50
2019-05-13T06:47:53.687Z,95.90
2019-05-13T06:50:36.166Z,96.30
2019-05-13T06:53:18.417Z,96.30
2019-05-13T06:56:01.532Z,96.50
2019-05-13T06:58:43.439Z,97.20
2019-05-13T07:01:25.336Z,96.40
2019-05-13T07:04:07.463Z,97.10
2019-05-13T07:06:52.912Z,97.50
2019-05-13T07:09:33.396Z,97.20
2019-05-13T07:12:15.414Z,96.00
2019-05-13T07:14:57.338Z,96.70
2019-05-13T07:17:41.576Z,95.90
2019-05-13T07:20:23.496Z,94.70
2019-05-13T07:23:05.435Z,94.10
2019-05-13T07:25:47.518Z,93.70
2019-05-13T07:28:32.054Z,94.20
2019-05-13T07:31:13.056Z,94.20
2019-05-13T07:33:55.044Z,93.60
2019-05-13T07:36:37.128Z,93.60
2019-05-13T07:39:19.134Z,94.10
2019-05-13T07:42:04.987Z,93.40
2019-05-13T07:44:45.021Z,94.80
2019-05-13T07:47:27.035Z,94.50
2019-05-13T07:50:09.154Z,94.90
2019-05-13T07:52:51.565Z,94.40
2019-05-13T07:55:33.794Z,94.10
2019-05-13T07:58:16.026Z,96.30
2019-05-13T08:00:57.960Z,94.70
2019-05-13T08:03:42.171Z,96.80
2019-05-13T08:06:22.390Z,94.80
2019-05-13T08:12:27.612Z,94.70
2019-05-13T08:22:01.850Z,93.40
2019-05-13T08:24:43.405Z,92.60
2019-05-13T08:27:30.518Z,92.80
2019-05-13T08:30:11.729Z,93.10
2019-05-13T08:32:53.365Z,94.20
2019-05-13T08:35:35.156Z,93.50
2019-05-13T08:38:17.394Z,93.60
2019-05-13T08:41:01.804Z,92.50
2019-05-13T08:43:43.697Z,93.70
2019-05-13T08:46:25.675Z,92.60
2019-05-13T08:49:07.690Z,93.30
2019-05-13T08:51:52.505Z,93.70
2019-05-13T08:54:33.924Z,94.10
2019-05-13T08:57:16.058Z,94.70
2019-05-13T08:59:58.139Z,93.60
2019-05-13T09:02:42.021Z,93.30
2019-05-13T09:05:24.376Z,93.00
2019-05-13T09:08:06.675Z,93.40
2019-05-13T09:10:48.748Z,93.90
2019-05-13T09:13:32.991Z,92.80
2019-05-13T09:16:14.927Z,92.00
2019-05-13T09:18:57.006Z,92.00
2019-05-13T09:21:39.314Z,92.10
2019-05-13T09:24:30.501Z,94.60
2019-05-13T09:27:05.475Z,92.30
2019-05-13T09:29:47.499Z,92.60
2019-05-13T09:32:31.204Z,92.00
2019-05-13T09:35:13.291Z,91.40
2019-05-13T09:37:55.074Z,92.00
2019-05-13T09:40:37.409Z,92.00
2019-05-13T09:43:22.079Z,93.10
2019-05-13T09:46:03.618Z,94.50
2019-05-13T09:48:45.627Z,92.20
2019-05-13T09:51:27.535Z,91.80
2019-05-13T09:54:11.658Z,92.40
2019-05-13T09:56:52.855Z,92.00
2019-05-13T10:02:57.187Z,94.50
2019-05-13T10:06:06.445Z,91.20
2019-05-13T10:09:15.584Z,87.30
2019-05-13T10:22:04.818Z,85.70
2019-05-13T10:25:34.128Z,90.60
2019-05-13T10:29:03.481Z,91.20
2019-05-13T10:32:12.459Z,92.60
2019-05-13T10:35:03.313Z,92.10
2019-05-13T10:37:54.183Z,86.50
2019-05-13T10:40:43.728Z,80.80
2019-05-13T10:47:02.532Z,81.20
2019-05-13T10:53:22.127Z,79.70
2019-05-13T10:56:32.704Z,81.00
2019-05-13T11:12:35.699Z,90.30
2019-05-13T11:15:25.224Z,92.40
2019-05-13T11:18:27.135Z,91.70
2019-05-13T11:21:12.289Z,92.50
2019-05-13T11:23:53.536Z,92.90
2019-05-13T11:26:36.676Z,91.00
2019-05-13T11:29:18.986Z,95.40
2019-05-13T11:32:02.721Z,93.10
2019-05-13T11:34:45.522Z,91.30
2019-05-13T11:37:27.860Z,95.60
2019-05-13T11:40:11.964Z,91.20
2019-05-13T11:42:53.663Z,91.90
2019-05-13T11:45:35.696Z,87.60
2019-05-13T11:48:18.155Z,87.30
2019-05-13T11:51:03.423Z,89.60
2019-05-13T11:53:44.016Z,93.60
2019-05-13T11:56:25.823Z,92.40
2019-05-13T11:59:07.895Z,92.60
2019-05-13T12:01:53.498Z,93.10
2019-05-13T12:04:34.475Z,94.90
2019-05-13T12:07:17.391Z,94.00
2019-05-13T12:09:59.211Z,91.90
2019-05-13T12:12:43.909Z,88.10
2019-05-13T12:15:33.519Z,90.40
2019-05-13T12:18:08.958Z,93.90
2019-05-13T12:20:54.056Z,93.90
2019-05-13T12:23:35.083Z,91.80
2019-05-13T12:26:17.724Z,93.10
2019-05-13T12:29:02.687Z,90.80
2019-05-13T12:31:43.873Z,92.20
2019-05-13T12:34:26.414Z,94.40
2019-05-13T12:37:09.139Z,94.50
2019-05-13T12:39:53.150Z,91.80
2019-05-13T12:42:35.353Z,90.40
2019-05-13T12:45:17.480Z,83.20
2019-05-13T12:48:02.954Z,84.80
2019-05-13T12:50:43.389Z,88.10
2019-05-13T12:53:25.487Z,86.60
2019-05-13T12:56:07.565Z,84.50
2019-05-13T12:58:52.040Z,87.00
2019-05-13T13:01:34.116Z,90.80
2019-05-13T13:04:16.303Z,88.50
2019-05-13T13:06:58.941Z,90.70
2019-05-13T13:09:43.249Z,92.90
2019-05-13T13:12:34.161Z,90.90
2019-05-13T13:15:33.002Z,88.60
2019-05-13T13:17:54.117Z,90.00
2019-05-13T13:20:42.167Z,89.30
2019-05-13T13:23:23.202Z,87.50
2019-05-13T13:26:04.003Z,87.80
2019-05-13T13:28:46.239Z,90.50
2019-05-13T13:31:28.335Z,87.50
2019-05-13T13:34:13.562Z,90.00
2019-05-13T13:36:54.574Z,91.50
2019-05-13T13:39:36.296Z,89.60
2019-05-13T13:42:18.462Z,87.20
2019-05-13T13:45:05.323Z,87.50
2019-05-13T13:47:45.682Z,89.20
2019-05-13T13:50:28.201Z,87.90
2019-05-13T13:53:13.899Z,92.20
2019-05-13T13:58:37.727Z,92.50
2019-05-13T14:01:26.031Z,92.60
2019-05-13T14:04:04.177Z,91.40
2019-05-13T14:07:09.453Z,89.80
2019-05-13T14:09:30.259Z,83.30
2019-05-13T14:12:12.772Z,83.60
2019-05-13T14:14:54.763Z,90.90
2019-05-13T14:17:37.176Z,88.50
2019-05-13T14:20:21.789Z,90.70
2019-05-13T14:23:03.339Z,91.30
2019-05-13T14:25:45.278Z,93.40
2019-05-13T14:28:27.662Z,90.40
2019-05-13T14:31:09.736Z,91.60
2019-05-13T14:33:52.360Z,91.80
2019-05-13T14:36:35.040Z,91.90
2019-05-13T14:39:17.042Z,91.60
2019-05-13T14:41:59.258Z,90.70
2019-05-13T14:44:41.267Z,91.10
2019-05-13T14:47:23.564Z,91.70
2019-05-13T14:50:05.511Z,91.40
2019-05-13T14:52:47.500Z,91.20
2019-05-13T14:55:31.898Z,84.40
2019-05-13T14:58:12.825Z,85.60
2019-05-13T15:01:11.332Z,79.60
2019-05-13T15:03:41.563Z,82.00
2019-05-13T15:06:24.109Z,77.90
2019-05-13T15:09:06.490Z,90.50
2019-05-13T15:11:52.538Z,88.60
2019-05-13T15:14:33.412Z,87.90
2019-05-13T15:17:16.180Z,92.40
2019-05-13T15:19:58.276Z,92.10
2019-05-13T15:22:42.452Z,90.60
2019-05-13T15:25:25.188Z,85.90
2019-05-13T15:28:07.380Z,83.00
2019-05-13T15:30:51.580Z,83.70
2019-05-13T15:33:33.511Z,83.10
2019-05-13T15:36:15.779Z,92.70
2019-05-13T15:38:57.768Z,91.70
2019-05-13T15:41:41.764Z,89.80
2019-05-13T15:44:24.772Z,80.10
2019-05-13T15:47:20.225Z,87.00
2019-05-13T15:49:50.262Z,86.70
2019-05-13T15:52:34.147Z,91.00
2019-05-13T15:55:16.768Z,93.70
2019-05-13T15:57:58.580Z,87.60
2019-05-13T16:00:41.909Z,90.70
2019-05-13T16:03:24.727Z,90.10
2019-05-13T16:06:06.673Z,87.80
2019-05-13T16:08:51.628Z,81.60
2019-05-13T16:11:32.805Z,77.10
2019-05-13T16:14:15.167Z,79.00
2019-05-13T16:16:57.003Z,77.40
2019-05-13T16:19:41.863Z,79.50
2019-05-13T16:22:23.456Z,83.90
2019-05-13T16:25:05.381Z,88.90
2019-05-13T16:27:47.487Z,92.30
2019-05-13T16:30:32.096Z,92.00
2019-05-13T16:33:13.817Z,93.30
2019-05-13T16:35:55.618Z,93.10
2019-05-13T16:38:37.780Z,84.50
2019-05-13T16:41:22.099Z,79.30
2019-05-13T16:44:03.977Z,80.30
2019-05-13T16:46:45.737Z,78.80
2019-05-13T16:49:27.951Z,77.00
2019-05-13T16:52:11.683Z,80.10
2019-05-13T16:54:54.974Z,77.40
2019-05-13T16:57:36.773Z,76.10
2019-05-13T17:00:19.010Z,76.70
2019-05-13T17:03:02.345Z,76.60
2019-05-13T17:05:44.621Z,82.00
2019-05-13T17:08:26.751Z,78.50
2019-05-13T17:11:11.558Z,78.80
2019-05-13T17:13:53.568Z,79.40
2019-05-13T17:16:35.772Z,77.50
2019-05-13T17:19:17.975Z,76.80
2019-05-13T17:22:02.293Z,73.50
2019-05-13T17:24:43.604Z,76.20
2019-05-13T17:27:25.546Z,74.60
2019-05-13T17:30:07.684Z,77.10
2019-05-13T17:32:51.604Z,80.50
2019-05-13T17:35:34.053Z,74.30
2019-05-13T17:38:16.414Z,76.40
2019-05-13T17:40:58.603Z,75.60
2019-05-13T17:43:41.289Z,73.10
2019-05-13T17:46:23.902Z,78.30
2019-05-13T17:49:06.248Z,78.00
2019-05-13T17:51:48.791Z,78.70
2019-05-13T17:54:31.855Z,76.50
2019-05-13T17:57:14.431Z,74.00
2019-05-13T17:59:56.511Z,71.80
2019-05-13T18:02:38.870Z,71.70
2019-05-13T18:05:22.551Z,72.00
2019-05-13T18:08:05.076Z,73.70
2019-05-13T18:10:47.270Z,72.10
2019-05-13T18:13:29.618Z,73.40
2019-05-13T18:16:12.529Z,74.40
2019-05-13T18:18:55.935Z,74.90
2019-05-13T18:21:37.637Z,74.40
2019-05-13T18:24:21.301Z,74.30
2019-05-13T18:27:03.522Z,75.40
2019-05-13T18:29:45.648Z,76.20
2019-05-13T18:32:27.947Z,75.70
2019-05-13T18:35:12.097Z,74.00
2019-05-13T18:37:54.362Z,75.70
2019-05-13T18:40:36.301Z,78.20
2019-05-13T18:43:18.505Z,76.00
2019-05-13T18:46:02.039Z,78.30
2019-05-13T18:48:58.238Z,76.50
2019-05-13T18:51:28.328Z,75.10
2019-05-13T18:57:07.560Z,76.50
2019-05-13T19:00:16.611Z,77.50
2019-05-13T19:03:06.200Z,78.50
2019-05-13T19:06:15.170Z,79.70
2019-05-13T19:12:42.043Z,81.40
2019-05-13T19:15:51.695Z,81.90
2019-05-13T19:18:54.507Z,82.20
2019-05-13T19:21:36.700Z,83.10
2019-05-13T19:24:19.159Z,81.90
2019-05-13T19:27:01.972Z,81.90
2019-05-13T19:29:44.838Z,82.10
2019-05-13T19:32:27.146Z,82.20
2019-05-13T19:35:11.443Z,82.60
2019-05-13T19:37:53.254Z,82.20
2019-05-13T19:40:36.424Z,82.50
2019-05-13T19:43:19.038Z,82.70
2019-05-13T19:46:01.965Z,81.90
2019-05-13T19:48:44.308Z,83.00
2019-05-13T19:51:28.327Z,83.20
2019-05-13T19:54:11.696Z,83.00
2019-05-13T19:56:53.984Z,82.50
2019-05-13T19:59:35.834Z,83.10
2019-05-13T20:02:18.031Z,83.00
2019-05-13T20:05:01.284Z,82.80
2019-05-13T20:07:43.661Z,83.10
2019-05-13T20:10:25.605Z,82.70
2019-05-13T20:13:08.474Z,82.60
2019-05-13T20:15:51.967Z,83.30
2019-05-13T20:18:34.902Z,84.20
2019-05-13T20:21:17.034Z,83.30
2019-05-13T20:23:59.271Z,82.40
2019-05-13T20:26:42.023Z,82.50
2019-05-13T20:29:24.047Z,82.70
2019-05-13T20:32:06.739Z,83.10
2019-05-13T20:34:51.334Z,83.20
2019-05-13T20:37:33.857Z,83.60
2019-05-13T20:40:16.543Z,83.30
2019-05-13T20:42:58.310Z,84.10
2019-05-13T20:45:42.149Z,84.80
2019-05-13T20:48:24.516Z,84.40
2019-05-13T20:51:07.279Z,85.30
2019-05-13T20:53:51.629Z,85.30
2019-05-13T20:56:34.115Z,86.40
2019-05-13T20:59:17.258Z,86.20
2019-05-13T21:02:02.131Z,85.70
2019-05-13T21:04:43.447Z,84.30
2019-05-13T21:07:25.782Z,83.90
2019-05-13T21:10:08.056Z,83.80
2019-05-13T21:12:51.562Z,85.10
2019-05-13T21:15:33.863Z,84.00
2019-05-13T21:18:16.153Z,84.40
2019-05-13T21:20:58.612Z,83.80
2019-05-13T21:23:41.748Z,83.60
2019-05-13T21:26:23.926Z,83.40
2019-05-13T21:29:06.519Z,84.60
2019-05-13T21:31:48.980Z,84.20
2019-05-13T21:34:31.631Z,84.00
2019-05-13T21:37:14.270Z,83.70
2019-05-13T21:39:56.824Z,84.40
2019-05-13T21:42:41.989Z,83.70
2019-05-13T21:45:23.955Z,84.40
2019-05-13T21:48:07.691Z,84.90
2019-05-13T21:50:51.577Z,84.40
2019-05-13T21:53:33.719Z,85.00
2019-05-13T21:56:15.450Z,83.60
2019-05-13T21:58:57.817Z,84.60
2019-05-13T22:01:42.306Z,84.70
2019-05-13T22:04:24.163Z,84.20
2019-05-13T22:07:05.887Z,84.20
2019-05-13T22:09:48.120Z,85.80
2019-05-13T22:12:32.003Z,85.20
2019-05-13T22:15:13.927Z,84.80
2019-05-13T22:17:56.072Z,85.50
2019-05-13T22:20:47.416Z,86.40
2019-05-13T22:23:22.683Z,86.70
2019-05-13T22:26:04.702Z,86.80
2019-05-13T22:28:46.508Z,87.10
2019-05-13T22:31:31.088Z,86.60
2019-05-13T22:34:13.550Z,87.20
2019-05-13T22:36:55.512Z,87.30
2019-05-13T22:39:37.323Z,87.60
2019-05-13T22:42:21.413Z,86.90
2019-05-13T22:44:52.228Z,87.00
2019-05-13T22:47:23.435Z,86.30
2019-05-13T22:49:56.799Z,86.90
2019-05-13T22:52:26.403Z,86.80
2019-05-13T22:54:56.918Z,87.20
2019-05-13T22:57:27.436Z,87.50
2019-05-13T22:59:59.050Z,87.80
2019-05-13T23:02:33.331Z,87.20
2019-05-13T23:05:01.898Z,86.10
2019-05-13T23:07:32.408Z,86.50
2019-05-13T23:10:03.144Z,85.60
2019-05-13T23:12:33.846Z,86.70
2019-05-13T23:15:05.106Z,87.40
2019-05-13T23:17:35.945Z,88.40
2019-05-13T23:20:07.388Z,88.00
2019-05-13T23:22:38.512Z,87.90
2019-05-13T23:25:09.448Z,87.50
2019-05-13T23:27:41.522Z,87.00
2019-05-13T23:30:14.737Z,87.00
2019-05-13T23:32:45.211Z,87.10
2019-05-13T23:35:15.854Z,87.80
2019-05-13T23:37:46.824Z,88.30
2019-05-13T23:40:17.379Z,88.80
2019-05-13T23:42:47.950Z,88.40
2019-05-13T23:45:18.422Z,88.50
2019-05-13T23:47:51.517Z,88.90
2019-05-13T23:50:22.035Z,89.30
2019-05-13T23:52:52.674Z,89.80
2019-05-13T23:55:23.235Z,90.20
2019-05-13T23:57:53.853Z,90.50
